Time;durP1;ratioP1;P1;durP2;ratioP2;P2;SDS_P1;SDS_P2;PMS_P1;PMS_P2;Temp;Humidity;BMP_temperature;BMP_pressure;BME280_temperature;BME280_humidity;BME280_pressure;Samples;Min_cycle;Max_cycle;Signal;HPM_P1;HPM_P2
2023/09/28 00:00:49;;;;;;;11.88;6.55;;;;;;;;;;5080350;28;20024;-64
2023/09/28 00:03:15;;;;;;;8.45;6.07;;;;;;;;;;5081617;28;20016;-64
2023/09/28 00:05:42;;;;;;;16.55;6.40;;;;;;;;;;5081642;28;20067;-64
2023/09/28 00:08:08;;;;;;;9.32;6.75;;;;;;;;;;5081074;28;20538;-64
2023/09/28 00:10:34;;;;;;;11.32;6.47;;;;;;;;;;5081549;28;21618;-64
2023/09/28 00:13:00;;;;;;;10.45;6.55;;;;;;;;;;5081679;28;20027;-64
2023/09/28 00:15:26;;;;;;;9.45;6.78;;;;;;;;;;5063882;28;20367;-64
2023/09/28 00:17:53;;;;;;;8.32;5.93;;;;;;;;;;5080804;28;20024;-64
2023/09/28 00:20:21;;;;;;;10.75;6.32;;;;;;;;;;5081081;28;21707;-64
2023/09/28 00:22:47;;;;;;;9.25;6.32;;;;;;;;;;5080887;28;20698;-64
2023/09/28 00:25:13;;;;;;;10.73;6.60;;;;;;;;;;5080996;28;20035;-64
2023/09/28 00:27:40;;;;;;;9.70;6.03;;;;;;;;;;5080749;28;20035;-64
2023/09/28 00:30:09;;;;;;;9.60;6.47;;;;;;;;;;5080687;28;20072;-64
2023/09/28 00:32:36;;;;;;;13.50;6.18;;;;;;;;;;5080573;28;20046;-64
2023/09/28 00:35:09;;;;;;;8.98;6.03;;;;;;;;;;5080864;28;20036;-64
2023/09/28 00:37:35;;;;;;;10.65;7.15;;;;;;;;;;5080860;28;20140;-64
2023/09/28 00:40:08;;;;;;;8.43;5.50;;;;;;;;;;5080835;28;20038;-64
2023/09/28 00:42:34;;;;;;;8.75;6.05;;;;;;;;;;5080901;28;20023;-64
2023/09/28 00:45:00;;;;;;;8.70;5.97;;;;;;;;;;5080852;28;20024;-64
2023/09/28 00:47:26;;;;;;;10.82;6.10;;;;;;;;;;5081002;28;20176;-64
2023/09/28 00:49:52;;;;;;;10.43;6.35;;;;;;;;;;5078712;28;20079;-64
2023/09/28 00:52:19;;;;;;;7.65;5.28;;;;;;;;;;5080894;28;20035;-64
2023/09/28 00:54:46;;;;;;;10.07;5.82;;;;;;;;;;5080501;28;20041;-64
2023/09/28 00:57:13;;;;;;;7.13;4.93;;;;;;;;;;5079370;28;20043;-64
2023/09/28 00:59:39;;;;;;;7.63;5.70;;;;;;;;;;5080049;28;20027;-64
2023/09/28 01:02:08;;;;;;;9.10;4.80;;;;;;;;;;5079831;28;20039;-64
2023/09/28 01:04:35;;;;;;;9.10;5.30;;;;;;;;;;5080145;28;21123;-64
2023/09/28 01:07:01;;;;;;;9.57;5.55;;;;;;;;;;5080102;28;20056;-64
2023/09/28 01:09:27;;;;;;;10.98;4.93;;;;;;;;;;5080852;28;20032;-64
2023/09/28 01:11:53;;;;;;;7.55;4.80;;;;;;;;;;5080397;28;20073;-63
2023/09/28 01:14:21;;;;;;;9.00;4.82;;;;;;;;;;5079627;28;20042;-64
2023/09/28 01:16:47;;;;;;;10.55;4.78;;;;;;;;;;5078735;28;20043;-64
2023/09/28 01:19:13;;;;;;;8.95;5.15;;;;;;;;;;5080045;28;20032;-64
2023/09/28 01:21:39;;;;;;;9.95;5.60;;;;;;;;;;5080188;28;20816;-64
2023/09/28 01:24:06;;;;;;;9.43;4.90;;;;;;;;;;5079435;28;20024;-64
2023/09/28 01:26:32;;;;;;;9.65;4.90;;;;;;;;;;5080078;28;21825;-64
2023/09/28 01:28:59;;;;;;;7.65;5.32;;;;;;;;;;5080603;28;20092;-64
2023/09/28 01:31:27;;;;;;;8.23;5.07;;;;;;;;;;5079070;28;20028;-64
2023/09/28 01:33:53;;;;;;;8.52;4.45;;;;;;;;;;5078637;28;20028;-64
2023/09/28 01:36:20;;;;;;;8.15;4.47;;;;;;;;;;5078256;28;21818;-64
2023/09/28 01:38:52;;;;;;;6.85;4.85;;;;;;;;;;5078873;28;20055;-64
2023/09/28 01:41:18;;;;;;;7.63;4.28;;;;;;;;;;5078938;28;20024;-64
2023/09/28 01:43:44;;;;;;;7.10;4.10;;;;;;;;;;5078810;28;20055;-64
2023/09/28 01:46:11;;;;;;;7.03;4.72;;;;;;;;;;5078851;28;20076;-64
2023/09/28 01:48:37;;;;;;;8.02;4.00;;;;;;;;;;5080480;28;20036;-64
2023/09/28 01:51:03;;;;;;;7.20;4.53;;;;;;;;;;5079537;28;20036;-64
2023/09/28 01:53:30;;;;;;;8.35;4.72;;;;;;;;;;5080225;28;21956;-64
2023/09/28 01:55:59;;;;;;;8.30;4.50;;;;;;;;;;5079749;28;20032;-64
2023/09/28 01:58:25;;;;;;;7.38;4.65;;;;;;;;;;5080327;28;20482;-64
2023/09/28 02:00:51;;;;;;;7.88;4.60;;;;;;;;;;5079202;28;20032;-64
2023/09/28 02:03:17;;;;;;;9.30;4.68;;;;;;;;;;5079747;28;20024;-64
2023/09/28 02:05:43;;;;;;;7.25;4.70;;;;;;;;;;5079256;28;20079;-64
2023/09/28 02:08:10;;;;;;;8.73;4.35;;;;;;;;;;5076920;28;20051;-64
2023/09/28 02:10:36;;;;;;;7.40;4.47;;;;;;;;;;5079996;28;20105;-64
2023/09/28 02:13:04;;;;;;;7.25;4.15;;;;;;;;;;5079021;28;20647;-64
2023/09/28 02:15:30;;;;;;;8.88;4.63;;;;;;;;;;5079961;28;20078;-64
2023/09/28 02:17:56;;;;;;;7.47;4.53;;;;;;;;;;5079838;28;20027;-64
2023/09/28 02:20:23;;;;;;;7.40;4.38;;;;;;;;;;5079605;28;20042;-64
2023/09/28 02:22:52;;;;;;;6.57;4.03;;;;;;;;;;5079860;28;20114;-64
2023/09/28 02:25:20;;;;;;;8.43;4.75;;;;;;;;;;5081399;28;20482;-64
2023/09/28 02:27:46;;;;;;;8.70;5.00;;;;;;;;;;5083037;28;20043;-64
2023/09/28 02:30:14;;;;;;;7.25;4.43;;;;;;;;;;5083004;28;20059;-64
2023/09/28 02:32:44;;;;;;;7.55;4.80;;;;;;;;;;5083109;28;20098;-64
2023/09/28 02:35:13;;;;;;;7.70;4.63;;;;;;;;;;5083188;28;20143;-64
2023/09/28 02:37:39;;;;;;;8.02;5.10;;;;;;;;;;5083786;28;20771;-64
2023/09/28 02:40:06;;;;;;;10.02;4.43;;;;;;;;;;5083474;28;20035;-64
2023/09/28 02:42:36;;;;;;;6.95;5.00;;;;;;;;;;5082770;28;20040;-64
2023/09/28 02:45:11;;;;;;;7.22;4.38;;;;;;;;;;5083192;28;20126;-64
2023/09/28 02:47:40;;;;;;;6.60;4.18;;;;;;;;;;5082395;28;20933;-64
2023/09/28 02:50:07;;;;;;;9.65;4.68;;;;;;;;;;5083526;28;20023;-64
2023/09/28 02:52:34;;;;;;;8.43;4.50;;;;;;;;;;5082276;28;20082;-64
2023/09/28 02:55:00;;;;;;;9.20;5.20;;;;;;;;;;5082903;28;20686;-64
2023/09/28 02:57:26;;;;;;;8.23;4.80;;;;;;;;;;5082584;28;20040;-64
2023/09/28 02:59:52;;;;;;;7.30;4.80;;;;;;;;;;5072382;28;20032;-64
2023/09/28 03:02:19;;;;;;;7.65;5.05;;;;;;;;;;5082688;28;20024;-64
2023/09/28 03:04:46;;;;;;;8.98;5.35;;;;;;;;;;5082306;28;20051;-63
2023/09/28 03:07:12;;;;;;;8.90;4.47;;;;;;;;;;5081650;28;20028;-64
2023/09/28 03:09:38;;;;;;;8.55;5.35;;;;;;;;;;5082302;28;20089;-64
2023/09/28 03:12:05;;;;;;;8.15;5.65;;;;;;;;;;5083298;28;20040;-64
2023/09/28 03:14:31;;;;;;;8.75;5.35;;;;;;;;;;5081731;28;20126;-64
2023/09/28 03:16:57;;;;;;;7.63;5.35;;;;;;;;;;5081988;28;20054;-64
2023/09/28 03:19:23;;;;;;;6.82;4.78;;;;;;;;;;5082855;28;20067;-64
2023/09/28 03:21:49;;;;;;;10.65;5.28;;;;;;;;;;5082731;28;20027;-64
2023/09/28 03:24:15;;;;;;;7.50;5.15;;;;;;;;;;5082861;28;20023;-64
2023/09/28 03:26:44;;;;;;;8.65;4.93;;;;;;;;;;5081525;28;20073;-64
2023/09/28 03:29:10;;;;;;;10.68;5.13;;;;;;;;;;5081937;28;20062;-64
2023/09/28 03:31:36;;;;;;;9.38;5.45;;;;;;;;;;5081927;28;20576;-64
2023/09/28 03:34:02;;;;;;;9.20;5.68;;;;;;;;;;5081569;28;20032;-63
2023/09/28 03:36:30;;;;;;;10.88;6.10;;;;;;;;;;5081416;28;20038;-64
2023/09/28 03:38:57;;;;;;;10.23;5.07;;;;;;;;;;5082313;28;20023;-64
2023/09/28 03:41:23;;;;;;;8.98;5.25;;;;;;;;;;5082074;27;20024;-64
2023/09/28 03:43:50;;;;;;;9.00;5.55;;;;;;;;;;5081998;28;20036;-64
2023/09/28 03:46:19;;;;;;;8.45;5.18;;;;;;;;;;5082445;28;20036;-64
2023/09/28 03:48:45;;;;;;;11.50;5.82;;;;;;;;;;5081216;28;20045;-64
2023/09/28 03:51:12;;;;;;;10.38;5.85;;;;;;;;;;5081217;28;20059;-64
2023/09/28 03:53:41;;;;;;;10.20;6.07;;;;;;;;;;5081129;28;20031;-64
2023/09/28 03:56:07;;;;;;;7.30;5.13;;;;;;;;;;5079028;28;20570;-64
2023/09/28 03:58:34;;;;;;;9.05;5.47;;;;;;;;;;5081642;28;20027;-64
2023/09/28 04:01:03;;;;;;;9.68;5.40;;;;;;;;;;5079643;28;20024;-64
2023/09/28 04:03:29;;;;;;;13.15;5.80;;;;;;;;;;5080550;28;20043;-64
2023/09/28 04:05:55;;;;;;;9.40;5.80;;;;;;;;;;5081358;27;20051;-63
2023/09/28 04:08:24;;;;;;;9.70;5.05;;;;;;;;;;5081466;28;20040;-63
2023/09/28 04:10:54;;;;;;;9.25;5.03;;;;;;;;;;5081294;28;20046;-64
2023/09/28 04:13:21;;;;;;;9.50;4.90;;;;;;;;;;5081821;28;20028;-64
2023/09/28 04:15:48;;;;;;;9.18;5.72;;;;;;;;;;5080633;27;20035;-63
2023/09/28 04:18:14;;;;;;;10.85;5.50;;;;;;;;;;5081138;28;20059;-64
2023/09/28 04:20:41;;;;;;;8.35;5.40;;;;;;;;;;5081252;27;20032;-64
2023/09/28 04:23:08;;;;;;;8.15;5.03;;;;;;;;;;5081077;28;20475;-64
2023/09/28 04:25:35;;;;;;;9.68;5.68;;;;;;;;;;5081110;28;20139;-64
2023/09/28 04:28:01;;;;;;;8.00;5.00;;;;;;;;;;5080850;28;20035;-64
2023/09/28 04:30:30;;;;;;;9.35;5.53;;;;;;;;;;5080511;28;20043;-64
2023/09/28 04:32:56;;;;;;;14.20;6.85;;;;;;;;;;5080232;28;20027;-64
2023/09/28 04:35:22;;;;;;;10.02;5.53;;;;;;;;;;5080487;28;20122;-64
2023/09/28 04:37:48;;;;;;;7.93;5.50;;;;;;;;;;5081074;28;20032;-64
2023/09/28 04:40:14;;;;;;;8.25;5.35;;;;;;;;;;5081440;28;20028;-64
2023/09/28 04:42:41;;;;;;;9.95;5.35;;;;;;;;;;5080446;28;20135;-64
2023/09/28 04:45:07;;;;;;;9.50;5.80;;;;;;;;;;5081547;28;20031;-64
2023/09/28 04:47:33;;;;;;;8.88;5.90;;;;;;;;;;5080826;28;20024;-64
2023/09/28 04:50:00;;;;;;;9.73;5.53;;;;;;;;;;5080392;28;20067;-64
2023/09/28 04:52:26;;;;;;;9.70;5.32;;;;;;;;;;5080533;28;20023;-64
2023/09/28 04:54:52;;;;;;;8.75;5.25;;;;;;;;;;5081329;28;20035;-64
2023/09/28 04:57:20;;;;;;;9.70;5.78;;;;;;;;;;5079440;28;20047;-64
2023/09/28 04:59:46;;;;;;;11.88;6.22;;;;;;;;;;5061609;28;20027;-64
2023/09/28 05:02:12;;;;;;;8.48;5.50;;;;;;;;;;5080332;28;20677;-64
2023/09/28 05:04:38;;;;;;;9.57;6.13;;;;;;;;;;5080291;28;20062;-64
2023/09/28 05:07:05;;;;;;;9.73;6.25;;;;;;;;;;5079910;28;20023;-64
2023/09/28 05:09:31;;;;;;;10.13;6.35;;;;;;;;;;5080372;28;20036;-64
2023/09/28 05:11:59;;;;;;;12.07;6.20;;;;;;;;;;5079873;28;20040;-64
2023/09/28 05:14:25;;;;;;;11.98;6.60;;;;;;;;;;5081155;28;20039;-64
2023/09/28 05:16:52;;;;;;;10.43;5.88;;;;;;;;;;5079605;28;20051;-64
2023/09/28 05:19:18;;;;;;;11.10;5.03;;;;;;;;;;5080725;28;20638;-64
2023/09/28 05:21:44;;;;;;;13.52;5.88;;;;;;;;;;5079955;28;20085;-64
2023/09/28 05:24:10;;;;;;;9.70;5.65;;;;;;;;;;5079412;28;20027;-63
2023/09/28 05:26:38;;;;;;;10.15;5.10;;;;;;;;;;5069216;28;20055;-64
2023/09/28 05:29:04;;;;;;;11.73;5.28;;;;;;;;;;5080137;28;20032;-64
2023/09/28 05:31:30;;;;;;;11.93;4.25;;;;;;;;;;5080490;28;20036;-64
2023/09/28 05:33:57;;;;;;;12.00;3.50;;;;;;;;;;5079750;28;20036;-63
2023/09/28 05:36:23;;;;;;;10.30;3.40;;;;;;;;;;5079776;28;20043;-64
2023/09/28 05:38:49;;;;;;;12.68;4.35;;;;;;;;;;5059585;28;20032;-63
2023/09/28 05:41:15;;;;;;;15.95;3.80;;;;;;;;;;5079203;28;20028;-64
2023/09/28 05:43:41;;;;;;;9.95;3.20;;;;;;;;;;5078911;28;20024;-64
2023/09/28 05:46:09;;;;;;;14.27;3.17;;;;;;;;;;5080101;28;20118;-64
2023/09/28 05:48:35;;;;;;;14.60;3.50;;;;;;;;;;5079012;28;20393;-63
2023/09/28 05:51:01;;;;;;;14.80;3.85;;;;;;;;;;5059388;28;20035;-64
2023/09/28 05:53:28;;;;;;;19.13;4.43;;;;;;;;;;5079727;28;20048;-64
2023/09/28 05:55:55;;;;;;;16.80;3.35;;;;;;;;;;5078460;28;20035;-64
2023/09/28 05:58:21;;;;;;;16.38;4.38;;;;;;;;;;5079235;28;20035;-64
2023/09/28 06:00:47;;;;;;;19.95;3.55;;;;;;;;;;5062556;28;20031;-64
2023/09/28 06:03:14;;;;;;;14.38;3.33;;;;;;;;;;5083797;28;20085;-64
2023/09/28 06:05:40;;;;;;;16.05;4.28;;;;;;;;;;5083487;28;20044;-64
2023/09/28 06:08:06;;;;;;;14.00;3.38;;;;;;;;;;5083888;28;20039;-64
2023/09/28 06:10:33;;;;;;;12.55;3.28;;;;;;;;;;5083131;28;20063;-64
2023/09/28 06:12:59;;;;;;;18.75;3.40;;;;;;;;;;5064767;28;20035;-64
2023/09/28 06:15:25;;;;;;;14.70;3.70;;;;;;;;;;5083300;28;20039;-64
2023/09/28 06:17:51;;;;;;;14.98;3.55;;;;;;;;;;5083769;28;20136;-64
2023/09/28 06:20:17;;;;;;;10.00;3.63;;;;;;;;;;5083078;28;20027;-64
2023/09/28 06:22:44;;;;;;;15.63;4.45;;;;;;;;;;5083683;28;20138;-64
2023/09/28 06:25:10;;;;;;;14.77;4.05;;;;;;;;;;5082848;28;20100;-63
2023/09/28 06:27:37;;;;;;;15.73;4.15;;;;;;;;;;5063577;28;20451;-64
2023/09/28 06:30:04;;;;;;;11.68;4.03;;;;;;;;;;5082957;27;20115;-64
2023/09/28 06:32:30;;;;;;;14.02;4.18;;;;;;;;;;5082434;28;21004;-64
2023/09/28 06:34:56;;;;;;;13.90;4.60;;;;;;;;;;5081418;27;20499;-64
2023/09/28 06:37:23;;;;;;;13.05;3.60;;;;;;;;;;5080916;28;20395;-64
2023/09/28 06:39:49;;;;;;;13.43;4.10;;;;;;;;;;5082325;27;20070;-64
2023/09/28 06:42:15;;;;;;;17.70;4.35;;;;;;;;;;5081892;28;20032;-64
2023/09/28 06:44:41;;;;;;;16.83;3.95;;;;;;;;;;5082173;27;20031;-64
2023/09/28 06:47:07;;;;;;;14.88;3.78;;;;;;;;;;5082486;28;20038;-64
2023/09/28 06:49:34;;;;;;;19.73;4.13;;;;;;;;;;5083406;27;20482;-64
2023/09/28 06:52:01;;;;;;;17.33;4.38;;;;;;;;;;5082748;28;20253;-64
2023/09/28 06:54:27;;;;;;;20.30;4.20;;;;;;;;;;5082391;27;20035;-64
2023/09/28 06:56:53;;;;;;;16.42;4.00;;;;;;;;;;5082667;28;20040;-64
2023/09/28 06:59:20;;;;;;;16.20;4.20;;;;;;;;;;5082820;28;20036;-64
2023/09/28 07:01:46;;;;;;;21.90;4.88;;;;;;;;;;5082179;28;20115;-64
2023/09/28 07:04:12;;;;;;;18.50;5.13;;;;;;;;;;5081905;28;20490;-64
2023/09/28 07:06:38;;;;;;;17.20;4.32;;;;;;;;;;5079485;27;21539;-64
2023/09/28 07:09:05;;;;;;;14.70;3.47;;;;;;;;;;5074894;27;20077;-64
2023/09/28 07:11:32;;;;;;;18.67;4.72;;;;;;;;;;5055676;28;20035;-64
2023/09/28 07:13:58;;;;;;;24.05;4.70;;;;;;;;;;5076383;28;20047;-64
2023/09/28 07:16:24;;;;;;;18.13;4.13;;;;;;;;;;5075092;27;20036;-64
2023/09/28 07:18:50;;;;;;;22.50;4.63;;;;;;;;;;5076123;28;20032;-64
2023/09/28 07:21:16;;;;;;;23.63;5.35;;;;;;;;;;5076914;28;21141;-64
2023/09/28 07:23:42;;;;;;;21.55;4.90;;;;;;;;;;5076056;27;20067;-64
2023/09/28 07:26:16;;;;;;;27.95;4.75;;;;;;;;;;5075803;28;20625;-64
2023/09/28 07:28:42;;;;;;;17.25;4.53;;;;;;;;;;5075019;28;21736;-64
2023/09/28 07:31:08;;;;;;;26.67;5.47;;;;;;;;;;5076378;28;20158;-64
2023/09/28 07:33:35;;;;;;;26.30;5.10;;;;;;;;;;5076314;27;20114;-64
2023/09/28 07:36:05;;;;;;;24.10;4.88;;;;;;;;;;5076051;27;20031;-64
2023/09/28 07:38:32;;;;;;;26.92;4.60;;;;;;;;;;5076806;28;20050;-64
2023/09/28 07:40:59;;;;;;;25.20;4.75;;;;;;;;;;5077029;28;20037;-64
2023/09/28 07:43:25;;;;;;;20.65;4.47;;;;;;;;;;5077905;27;20119;-64
2023/09/28 07:45:51;;;;;;;23.00;4.88;;;;;;;;;;5076545;28;20853;-64
2023/09/28 07:48:17;;;;;;;20.27;3.85;;;;;;;;;;5077134;28;20758;-64
2023/09/28 07:50:43;;;;;;;19.17;3.78;;;;;;;;;;5075679;28;20051;-64
2023/09/28 07:53:09;;;;;;;18.58;4.30;;;;;;;;;;5076150;28;20947;-64
2023/09/28 07:55:35;;;;;;;25.30;4.82;;;;;;;;;;5076393;28;20062;-64
2023/09/28 07:58:01;;;;;;;23.95;4.22;;;;;;;;;;5057172;28;20123;-64
2023/09/28 08:00:28;;;;;;;22.73;4.90;;;;;;;;;;5076444;28;20107;-64
2023/09/28 08:02:55;;;;;;;23.60;5.00;;;;;;;;;;5075241;28;20044;-64
2023/09/28 08:05:22;;;;;;;19.15;4.25;;;;;;;;;;5075559;28;20411;-64
2023/09/28 08:07:48;;;;;;;29.45;4.97;;;;;;;;;;5075683;28;20074;-64
2023/09/28 08:10:14;;;;;;;23.45;4.80;;;;;;;;;;5075196;28;20036;-64
2023/09/28 08:12:42;;;;;;;23.08;4.30;;;;;;;;;;5076806;28;20043;-64
2023/09/28 08:15:08;;;;;;;22.50;4.88;;;;;;;;;;5076834;28;20852;-64
2023/09/28 08:17:36;;;;;;;19.27;3.78;;;;;;;;;;5075592;27;20130;-64
2023/09/28 08:20:02;;;;;;;24.23;4.57;;;;;;;;;;5076012;28;21776;-64
2023/09/28 08:22:28;;;;;;;22.50;4.82;;;;;;;;;;5073907;28;20019;-64
2023/09/28 08:24:55;;;;;;;20.88;4.70;;;;;;;;;;5074065;27;20024;-64
2023/09/28 08:27:21;;;;;;;16.30;3.75;;;;;;;;;;5076123;28;20038;-64
2023/09/28 08:29:47;;;;;;;26.23;4.90;;;;;;;;;;5074294;28;21280;-64
2023/09/28 08:32:13;;;;;;;19.40;4.43;;;;;;;;;;5074473;27;20067;-64
2023/09/28 08:34:39;;;;;;;19.45;4.60;;;;;;;;;;5075190;27;20110;-64
2023/09/28 08:37:05;;;;;;;21.52;3.72;;;;;;;;;;5074740;27;20040;-64
2023/09/28 08:39:31;;;;;;;15.25;3.92;;;;;;;;;;5074722;28;20028;-64
2023/09/28 08:42:01;;;;;;;20.13;4.43;;;;;;;;;;5075970;28;20039;-64
2023/09/28 08:44:30;;;;;;;19.80;4.65;;;;;;;;;;5074077;27;20028;-64
2023/09/28 08:46:59;;;;;;;19.98;4.03;;;;;;;;;;5073495;28;20434;-64
2023/09/28 08:49:29;;;;;;;22.00;4.00;;;;;;;;;;5072823;28;20100;-64
2023/09/28 08:51:58;;;;;;;24.35;4.97;;;;;;;;;;5073383;28;20100;-64
2023/09/28 08:54:24;;;;;;;17.20;3.83;;;;;;;;;;5073928;28;20038;-64
2023/09/28 08:56:52;;;;;;;20.35;4.55;;;;;;;;;;5073714;28;20055;-64
2023/09/28 08:59:19;;;;;;;18.95;4.90;;;;;;;;;;5075020;28;20069;-64
2023/09/28 09:01:47;;;;;;;20.35;4.78;;;;;;;;;;5074717;28;20028;-64
2023/09/28 09:04:14;;;;;;;22.33;5.10;;;;;;;;;;5075156;28;20044;-64
2023/09/28 09:06:42;;;;;;;17.27;3.95;;;;;;;;;;5073827;28;20051;-64
2023/09/28 09:09:13;;;;;;;23.92;4.60;;;;;;;;;;5074575;28;20042;-64
2023/09/28 09:11:39;;;;;;;22.90;4.85;;;;;;;;;;5074360;28;20038;-64
2023/09/28 09:14:05;;;;;;;19.05;4.18;;;;;;;;;;5074631;28;20040;-64
2023/09/28 09:16:31;;;;;;;22.20;4.40;;;;;;;;;;5074868;28;20036;-65
2023/09/28 09:18:57;;;;;;;20.48;4.55;;;;;;;;;;5074202;28;20426;-65
2023/09/28 09:21:24;;;;;;;20.08;4.10;;;;;;;;;;5074893;28;20024;-65
2023/09/28 09:24:02;;;;;;;21.17;4.45;;;;;;;;;;5073642;28;20032;-64
2023/09/28 09:26:29;;;;;;;22.52;4.25;;;;;;;;;;5057211;28;20114;-64
2023/09/28 09:29:00;;;;;;;16.98;4.00;;;;;;;;;;5074679;28;20040;-64
2023/09/28 09:31:26;;;;;;;14.63;3.55;;;;;;;;;;5074520;28;20050;-64
2023/09/28 09:33:52;;;;;;;19.67;3.90;;;;;;;;;;5073979;28;20035;-64
2023/09/28 09:36:19;;;;;;;18.73;4.05;;;;;;;;;;5078895;27;20085;-64
2023/09/28 09:38:45;;;;;;;18.63;4.00;;;;;;;;;;5078803;28;20130;-64
2023/09/28 09:41:11;;;;;;;21.35;5.30;;;;;;;;;;5077667;28;20023;-64
2023/09/28 09:43:40;;;;;;;21.30;4.65;;;;;;;;;;5078745;28;20043;-64
2023/09/28 09:46:07;;;;;;;20.70;3.88;;;;;;;;;;5078815;28;20470;-64
2023/09/28 09:48:41;;;;;;;21.90;4.38;;;;;;;;;;5078536;28;20027;-64
2023/09/28 09:51:10;;;;;;;17.48;4.22;;;;;;;;;;5077355;28;20042;-64
2023/09/28 09:53:43;;;;;;;21.10;4.55;;;;;;;;;;5077699;27;20039;-64
2023/09/28 09:56:10;;;;;;;22.08;4.03;;;;;;;;;;5059137;28;20113;-64
2023/09/28 09:58:49;;;;;;;17.45;4.15;;;;;;;;;;5078390;28;20734;-64
2023/09/28 10:01:18;;;;;;;24.38;5.85;;;;;;;;;;5078165;28;20558;-64
2023/09/28 10:03:50;;;;;;;27.38;5.95;;;;;;;;;;5078277;28;20081;-64
2023/09/28 10:06:17;;;;;;;21.52;4.78;;;;;;;;;;5078647;28;20574;-64
2023/09/28 10:08:46;;;;;;;21.88;4.75;;;;;;;;;;5077510;28;20783;-64
2023/09/28 10:11:13;;;;;;;20.48;3.97;;;;;;;;;;5077061;28;20059;-64
2023/09/28 10:13:40;;;;;;;20.15;4.32;;;;;;;;;;5077455;28;21751;-64
2023/09/28 10:16:07;;;;;;;18.73;3.72;;;;;;;;;;5078643;28;20156;-64
2023/09/28 10:18:34;;;;;;;21.88;5.05;;;;;;;;;;5077915;28;20023;-64
2023/09/28 10:21:01;;;;;;;21.27;4.78;;;;;;;;;;5078071;28;20449;-64
2023/09/28 10:23:28;;;;;;;22.50;5.55;;;;;;;;;;5078532;28;20028;-64
2023/09/28 10:25:58;;;;;;;25.02;5.53;;;;;;;;;;5078298;27;20417;-64
2023/09/28 10:28:27;;;;;;;21.83;4.97;;;;;;;;;;5076464;28;20040;-64
2023/09/28 10:31:03;;;;;;;19.20;5.10;;;;;;;;;;5078236;28;20044;-64
2023/09/28 10:33:32;;;;;;;20.77;3.67;;;;;;;;;;5078789;28;20088;-64
2023/09/28 10:36:15;;;;;;;21.00;4.15;;;;;;;;;;5078160;28;20069;-64
2023/09/28 10:38:42;;;;;;;17.20;3.95;;;;;;;;;;5077303;28;20498;-64
2023/09/28 10:41:08;;;;;;;22.48;4.63;;;;;;;;;;5074769;28;20032;-64
2023/09/28 10:43:42;;;;;;;18.23;4.85;;;;;;;;;;5074529;28;20078;-64
2023/09/28 10:46:08;;;;;;;29.08;5.65;;;;;;;;;;5075039;28;20036;-64
2023/09/28 10:48:41;;;;;;;17.75;4.03;;;;;;;;;;5075442;28;20031;-64
2023/09/28 10:51:11;;;;;;;24.70;4.80;;;;;;;;;;5076486;28;20024;-64
2023/09/28 10:53:37;;;;;;;18.92;4.82;;;;;;;;;;5076360;27;20043;-64
2023/09/28 10:56:06;;;;;;;16.67;4.93;;;;;;;;;;5068278;27;20036;-64
2023/09/28 10:58:33;;;;;;;25.85;5.93;;;;;;;;;;5071240;28;20047;-64
2023/09/28 11:01:04;;;;;;;17.15;4.25;;;;;;;;;;5070051;28;20025;-64
2023/09/28 11:03:31;;;;;;;23.40;4.93;;;;;;;;;;5070997;28;20069;-64
2023/09/28 11:05:58;;;;;;;22.42;4.68;;;;;;;;;;5069968;28;20062;-65
2023/09/28 11:08:25;;;;;;;22.38;4.65;;;;;;;;;;5050142;28;20035;-64
2023/09/28 11:10:55;;;;;;;20.52;3.97;;;;;;;;;;5070045;28;20632;-64
2023/09/28 11:13:21;;;;;;;17.20;4.07;;;;;;;;;;5069908;28;20179;-64
2023/09/28 11:15:48;;;;;;;17.27;3.92;;;;;;;;;;5068653;27;21752;-64
2023/09/28 11:18:15;;;;;;;13.90;4.05;;;;;;;;;;5070066;28;20792;-64
2023/09/28 11:20:41;;;;;;;16.98;4.22;;;;;;;;;;5068796;28;20097;-64
2023/09/28 11:23:10;;;;;;;22.88;4.72;;;;;;;;;;5070040;27;20032;-64
2023/09/28 11:25:38;;;;;;;23.33;4.47;;;;;;;;;;5070375;28;20144;-64
2023/09/28 11:28:05;;;;;;;16.55;3.78;;;;;;;;;;5070205;28;20042;-64
2023/09/28 11:30:31;;;;;;;15.18;3.42;;;;;;;;;;5052910;28;20570;-64
2023/09/28 11:32:57;;;;;;;18.52;3.60;;;;;;;;;;5070672;28;20671;-64
2023/09/28 11:35:24;;;;;;;15.80;3.40;;;;;;;;;;5069071;28;20044;-64
2023/09/28 11:37:51;;;;;;;22.95;3.75;;;;;;;;;;5070518;28;20124;-64
2023/09/28 11:40:19;;;;;;;14.13;2.88;;;;;;;;;;5070266;28;20031;-64
2023/09/28 11:42:48;;;;;;;17.90;3.92;;;;;;;;;;5069923;28;20601;-64
2023/09/28 11:45:15;;;;;;;14.52;3.50;;;;;;;;;;5070845;28;20043;-64
2023/09/28 11:47:41;;;;;;;13.70;3.50;;;;;;;;;;5070614;28;20120;-64
2023/09/28 11:50:07;;;;;;;17.42;3.40;;;;;;;;;;5070635;27;20128;-64
2023/09/28 11:52:38;;;;;;;18.67;3.92;;;;;;;;;;5068573;28;20800;-64
2023/09/28 11:55:08;;;;;;;16.75;3.72;;;;;;;;;;5070115;28;20056;-64
2023/09/28 11:57:36;;;;;;;16.05;3.30;;;;;;;;;;5068152;28;20083;-64
2023/09/28 12:00:03;;;;;;;17.33;4.43;;;;;;;;;;5069369;28;20032;-64
2023/09/28 12:02:29;;;;;;;15.88;3.35;;;;;;;;;;5068456;27;20028;-64
2023/09/28 12:04:57;;;;;;;12.07;3.22;;;;;;;;;;5069079;28;20047;-64
2023/09/28 12:07:24;;;;;;;18.17;3.83;;;;;;;;;;5068882;28;20043;-64
2023/09/28 12:09:50;;;;;;;20.65;4.43;;;;;;;;;;5049799;28;20032;-64
2023/09/28 12:12:17;;;;;;;20.65;4.10;;;;;;;;;;5068175;28;20677;-64
2023/09/28 12:14:43;;;;;;;16.38;4.53;;;;;;;;;;5069096;28;20112;-64
2023/09/28 12:17:09;;;;;;;18.52;3.72;;;;;;;;;;5050360;28;20124;-64
2023/09/28 12:19:35;;;;;;;18.15;3.95;;;;;;;;;;5069681;28;20031;-64
2023/09/28 12:22:03;;;;;;;21.17;5.03;;;;;;;;;;5052328;28;20024;-64
2023/09/28 12:24:29;;;;;;;16.52;4.78;;;;;;;;;;5069281;27;20084;-64
2023/09/28 12:26:56;;;;;;;13.35;4.15;;;;;;;;;;5068815;28;20036;-64
2023/09/28 12:29:22;;;;;;;17.23;3.95;;;;;;;;;;5068195;27;20028;-64
2023/09/28 12:31:48;;;;;;;26.60;5.32;;;;;;;;;;5068744;28;21892;-64
2023/09/28 12:34:14;;;;;;;19.48;3.50;;;;;;;;;;5068576;27;20032;-64
2023/09/28 12:36:41;;;;;;;23.23;4.80;;;;;;;;;;5068115;28;20143;-64
2023/09/28 12:39:10;;;;;;;15.98;4.13;;;;;;;;;;5069494;28;20146;-64
2023/09/28 12:41:36;;;;;;;18.02;5.00;;;;;;;;;;5068149;28;21059;-64
2023/09/28 12:44:02;;;;;;;20.73;4.30;;;;;;;;;;5067554;28;20120;-64
2023/09/28 12:46:28;;;;;;;18.23;4.05;;;;;;;;;;5068763;28;20032;-64
2023/09/28 12:48:57;;;;;;;21.73;4.93;;;;;;;;;;5049082;28;20881;-64
2023/09/28 12:51:23;;;;;;;19.90;4.25;;;;;;;;;;5064779;28;20384;-64
2023/09/28 12:53:50;;;;;;;20.23;4.13;;;;;;;;;;5064470;28;20119;-64
2023/09/28 12:56:17;;;;;;;18.02;4.15;;;;;;;;;;5055420;28;20869;-64
2023/09/28 12:58:43;;;;;;;17.15;3.75;;;;;;;;;;5064882;28;20066;-64
2023/09/28 13:01:10;;;;;;;25.63;4.63;;;;;;;;;;5065228;28;20036;-64
2023/09/28 13:03:36;;;;;;;20.90;3.83;;;;;;;;;;5068301;28;20042;-64
2023/09/28 13:06:06;;;;;;;23.83;5.03;;;;;;;;;;5066850;28;20751;-64
2023/09/28 13:08:32;;;;;;;18.58;3.40;;;;;;;;;;5067641;28;20078;-64
2023/09/28 13:10:58;;;;;;;15.35;3.67;;;;;;;;;;5068263;28;20043;-64
2023/09/28 13:13:24;;;;;;;17.75;3.70;;;;;;;;;;5068937;28;20036;-64
2023/09/28 13:15:50;;;;;;;18.38;4.15;;;;;;;;;;5067655;28;20088;-64
2023/09/28 13:18:16;;;;;;;15.82;3.53;;;;;;;;;;5068538;28;20158;-64
2023/09/28 13:20:43;;;;;;;19.13;3.53;;;;;;;;;;5049351;28;20066;-64
2023/09/28 13:23:11;;;;;;;20.17;4.20;;;;;;;;;;5067198;28;20699;-66
2023/09/28 13:25:38;;;;;;;17.15;4.03;;;;;;;;;;5065322;28;20039;-66
2023/09/28 13:28:08;;;;;;;21.40;4.47;;;;;;;;;;5053245;28;20046;-65
2023/09/28 13:30:38;;;;;;;16.13;3.90;;;;;;;;;;5064922;28;20028;-64
2023/09/28 13:33:06;;;;;;;15.40;3.47;;;;;;;;;;5046813;28;20706;-66
2023/09/28 13:35:32;;;;;;;24.63;5.00;;;;;;;;;;5053527;28;20091;-63
2023/09/28 13:37:58;;;;;;;14.07;3.50;;;;;;;;;;5070457;28;21594;-63
2023/09/28 13:40:34;;;;;;;15.57;3.55;;;;;;;;;;5072567;28;21014;-63
2023/09/28 13:43:07;;;;;;;18.25;3.53;;;;;;;;;;5073823;28;20027;-63
2023/09/28 13:45:33;;;;;;;17.17;4.07;;;;;;;;;;5074252;28;20045;-63
2023/09/28 13:47:59;;;;;;;22.70;5.05;;;;;;;;;;5074416;28;20528;-63
2023/09/28 13:50:30;;;;;;;18.63;3.80;;;;;;;;;;5074074;28;20024;-63
2023/09/28 13:52:56;;;;;;;24.52;4.95;;;;;;;;;;5074213;28;20031;-63
2023/09/28 13:55:23;;;;;;;16.58;3.83;;;;;;;;;;5073494;28;20096;-63
2023/09/28 13:57:50;;;;;;;17.05;3.88;;;;;;;;;;5075406;28;20061;-63
2023/09/28 14:00:28;;;;;;;17.73;3.83;;;;;;;;;;5073657;28;20032;-63
2023/09/28 14:02:58;;;;;;;19.77;3.55;;;;;;;;;;5073879;28;20040;-63
2023/09/28 14:05:25;;;;;;;17.63;3.63;;;;;;;;;;5074437;28;20048;-63
2023/09/28 14:07:51;;;;;;;18.15;3.60;;;;;;;;;;5054438;28;20027;-63
2023/09/28 14:10:19;;;;;;;16.35;3.65;;;;;;;;;;5074187;28;20032;-63
2023/09/28 14:12:45;;;;;;;20.38;4.40;;;;;;;;;;5074078;28;20687;-63
2023/09/28 14:15:12;;;;;;;17.50;3.22;;;;;;;;;;5075061;28;20121;-63
2023/09/28 14:17:38;;;;;;;17.75;4.90;;;;;;;;;;5073700;28;20067;-63
2023/09/28 14:20:06;;;;;;;18.67;3.88;;;;;;;;;;5074415;28;21204;-63
2023/09/28 14:22:33;;;;;;;20.45;4.35;;;;;;;;;;5078296;28;20024;-64
2023/09/28 14:25:00;;;;;;;16.67;3.60;;;;;;;;;;5058697;28;20072;-63
2023/09/28 14:27:26;;;;;;;16.58;3.47;;;;;;;;;;5077833;28;20036;-63
2023/09/28 14:29:53;;;;;;;14.13;3.42;;;;;;;;;;5078291;28;20050;-63
2023/09/28 14:32:19;;;;;;;16.73;3.47;;;;;;;;;;5078504;28;20032;-63